createdAt,value
2023-08-07T00:02:03.829Z,66.35
2023-08-07T00:04:30.735Z,66.44
2023-08-07T00:06:57.563Z,66.36
2023-08-07T00:09:24.426Z,66.55
2023-08-07T00:11:51.301Z,66.72
2023-08-07T00:14:18.117Z,66.82
2023-08-07T00:16:46.012Z,66.94
2023-08-07T00:19:12.864Z,67.08
2023-08-07T00:21:39.741Z,67.08
2023-08-07T00:24:06.477Z,67.15
2023-08-07T00:26:33.441Z,67.45
2023-08-07T00:29:00.385Z,67.54
2023-08-07T00:31:27.411Z,67.56
2023-08-07T00:33:54.266Z,67.81
2023-08-07T00:36:21.252Z,67.85
2023-08-07T00:38:48.099Z,67.94
2023-08-07T00:41:14.890Z,67.92
2023-08-07T00:43:41.756Z,67.74
2023-08-07T00:46:08.923Z,67.75
2023-08-07T00:48:36.020Z,67.68
2023-08-07T00:51:03.917Z,67.72
2023-08-07T00:53:31.520Z,67.74
2023-08-07T00:55:58.482Z,67.66
2023-08-07T00:58:25.478Z,67.66
2023-08-07T01:00:52.527Z,67.63
2023-08-07T01:03:19.432Z,67.73
2023-08-07T01:05:46.276Z,67.65
2023-08-07T01:08:13.505Z,67.54
2023-08-07T01:10:55.339Z,67.62
2023-08-07T01:13:33.254Z,67.67
2023-08-07T01:16:05.734Z,67.48
2023-08-07T01:18:32.682Z,67.31
2023-08-07T01:21:00.046Z,67.49
2023-08-07T01:23:26.896Z,67.60
2023-08-07T01:25:53.945Z,67.49
2023-08-07T01:28:40.021Z,67.62
2023-08-07T01:31:15.198Z,67.66
2023-08-07T01:33:52.743Z,67.73
2023-08-07T01:36:20.910Z,67.67
2023-08-07T01:38:50.736Z,67.48
2023-08-07T01:41:17.673Z,67.16
2023-08-07T01:43:44.639Z,67.12
2023-08-07T01:46:12.525Z,67.11
2023-08-07T01:48:39.354Z,67.12
2023-08-07T01:51:06.204Z,66.99
2023-08-07T01:53:32.976Z,66.54
2023-08-07T01:55:59.819Z,66.40
2023-08-07T01:58:26.665Z,66.37
2023-08-07T02:00:54.946Z,66.32
2023-08-07T02:03:22.013Z,66.17
2023-08-07T02:05:49.630Z,65.91
2023-08-07T02:08:18.327Z,65.85
2023-08-07T02:10:47.328Z,65.79
2023-08-07T02:13:16.510Z,65.84
2023-08-07T02:15:43.857Z,65.73
2023-08-07T02:18:11.156Z,65.51
2023-08-07T02:20:38.587Z,65.45
2023-08-07T02:23:05.974Z,65.72
2023-08-07T02:25:34.039Z,65.62
2023-08-07T02:28:02.013Z,65.43
2023-08-07T02:30:29.439Z,65.32
2023-08-07T02:32:56.375Z,65.48
2023-08-07T02:35:23.421Z,65.08
2023-08-07T02:37:50.290Z,64.86
2023-08-07T02:40:17.095Z,65.11
2023-08-07T02:42:43.909Z,65.06
2023-08-07T02:45:11.034Z,65.14
2023-08-07T02:47:37.915Z,65.19
2023-08-07T02:50:05.114Z,64.84
2023-08-07T02:52:31.929Z,64.79
2023-08-07T02:54:58.962Z,65.00
2023-08-07T02:57:26.268Z,64.80
2023-08-07T02:59:53.070Z,64.96
2023-08-07T03:02:19.940Z,65.02
2023-08-07T03:04:46.920Z,65.10
2023-08-07T03:07:13.706Z,65.07
2023-08-07T03:09:41.027Z,64.98
2023-08-07T03:12:08.377Z,64.89
2023-08-07T03:14:35.225Z,64.96
2023-08-07T03:17:02.193Z,64.79
2023-08-07T03:19:29.013Z,65.03
2023-08-07T03:21:55.860Z,64.90
2023-08-07T03:24:22.709Z,64.95
2023-08-07T03:26:49.600Z,65.42
2023-08-07T03:29:16.910Z,65.34
2023-08-07T03:31:43.776Z,65.68
2023-08-07T03:34:10.712Z,65.07
2023-08-07T03:36:37.604Z,65.07
2023-08-07T03:39:05.114Z,64.79
2023-08-07T03:41:31.984Z,65.12
2023-08-07T03:43:58.846Z,64.97
2023-08-07T03:46:25.797Z,64.88
2023-08-07T03:48:52.625Z,64.83
2023-08-07T03:51:19.956Z,64.88
2023-08-07T03:53:46.839Z,65.26
2023-08-07T03:56:13.672Z,65.02
2023-08-07T03:58:40.493Z,64.97
2023-08-07T04:01:07.413Z,65.03
2023-08-07T04:03:34.259Z,65.05
2023-08-07T04:06:01.276Z,64.62
2023-08-07T04:08:28.079Z,64.76
2023-08-07T04:11:01.276Z,64.99
2023-08-07T04:13:29.390Z,65.60
2023-08-07T04:15:56.427Z,65.67
2023-08-07T04:18:23.458Z,65.22
2023-08-07T04:20:52.214Z,65.73
2023-08-07T04:23:19.531Z,65.15
2023-08-07T04:25:48.528Z,65.30
2023-08-07T04:28:15.788Z,65.33
2023-08-07T04:30:43.368Z,64.87
2023-08-07T04:33:10.318Z,64.75
2023-08-07T04:35:37.159Z,64.56
2023-08-07T04:38:04.115Z,64.56
2023-08-07T04:40:31.479Z,64.92
2023-08-07T04:42:58.852Z,64.45
2023-08-07T04:45:25.700Z,64.97
2023-08-07T04:47:52.623Z,64.80
2023-08-07T04:50:19.449Z,64.58
2023-08-07T04:52:46.896Z,64.81
2023-08-07T04:55:13.706Z,64.54
2023-08-07T04:57:41.106Z,64.32
2023-08-07T05:00:08.509Z,64.05
2023-08-07T05:02:36.093Z,63.78
2023-08-07T05:05:03.602Z,63.82
2023-08-07T05:07:30.475Z,63.56
2023-08-07T05:09:57.391Z,63.59
2023-08-07T05:12:24.234Z,63.39
2023-08-07T05:14:51.033Z,63.23
2023-08-07T05:17:17.864Z,62.86
2023-08-07T05:19:45.271Z,63.12
2023-08-07T05:22:12.095Z,62.59
2023-08-07T05:24:38.949Z,62.37
2023-08-07T05:27:07.321Z,62.11
2023-08-07T05:29:34.146Z,62.08
2023-08-07T05:32:01.466Z,61.82
2023-08-07T05:34:28.287Z,61.74
2023-08-07T05:36:55.088Z,61.68
2023-08-07T05:39:22.048Z,61.68
2023-08-07T05:41:48.880Z,60.95
2023-08-07T05:44:15.823Z,60.98
2023-08-07T05:46:42.624Z,60.97
2023-08-07T05:49:09.511Z,61.22
2023-08-07T05:51:36.307Z,61.15
2023-08-07T05:54:03.108Z,60.89
2023-08-07T05:56:29.953Z,60.26
2023-08-07T05:58:56.771Z,60.32
2023-08-07T06:01:23.722Z,59.73
2023-08-07T06:03:50.590Z,59.62
2023-08-07T06:06:17.504Z,59.25
2023-08-07T06:08:44.344Z,58.93
2023-08-07T06:11:11.156Z,58.57
2023-08-07T06:13:38.029Z,57.69
2023-08-07T06:16:05.172Z,58.03
2023-08-07T06:18:32.038Z,57.85
2023-08-07T06:20:58.880Z,57.72
2023-08-07T06:23:25.739Z,57.81
2023-08-07T06:25:55.402Z,58.04
2023-08-07T06:28:24.722Z,57.29
2023-08-07T06:30:51.744Z,57.32
2023-08-07T06:33:18.613Z,57.56
2023-08-07T06:35:45.510Z,57.47
2023-08-07T06:38:12.617Z,57.61
2023-08-07T06:40:39.525Z,57.65
2023-08-07T06:43:06.433Z,57.04
2023-08-07T06:45:33.254Z,57.26
2023-08-07T06:48:00.118Z,57.11
2023-08-07T06:50:27.569Z,56.95
2023-08-07T06:52:54.517Z,56.59
2023-08-07T06:55:21.608Z,56.49
2023-08-07T06:57:48.621Z,56.58
2023-08-07T07:00:16.654Z,56.68
2023-08-07T07:02:44.158Z,56.03
2023-08-07T07:05:11.048Z,55.78
2023-08-07T07:07:37.880Z,56.21
2023-08-07T07:10:04.941Z,56.33
2023-08-07T07:12:31.920Z,56.52
2023-08-07T07:14:58.759Z,56.48
2023-08-07T07:17:25.551Z,56.26
2023-08-07T07:19:52.421Z,55.99
2023-08-07T07:22:19.254Z,56.03
2023-08-07T07:24:46.035Z,55.83
2023-08-07T07:27:12.840Z,55.87
2023-08-07T07:29:39.653Z,55.03
2023-08-07T07:32:07.120Z,55.20
2023-08-07T07:34:33.927Z,55.47
2023-08-07T07:37:00.762Z,55.68
2023-08-07T07:39:27.567Z,54.94
2023-08-07T07:41:54.593Z,54.78
2023-08-07T07:44:21.755Z,54.78
2023-08-07T07:46:48.585Z,55.00
2023-08-07T07:49:15.523Z,54.78
2023-08-07T07:51:42.294Z,54.64
2023-08-07T07:54:15.101Z,54.12
2023-08-07T07:56:46.680Z,53.98
2023-08-07T07:59:13.914Z,53.84
2023-08-07T08:01:40.828Z,53.79
2023-08-07T08:04:07.954Z,53.44
2023-08-07T08:06:34.819Z,52.69
2023-08-07T08:09:01.643Z,53.35
2023-08-07T08:11:28.489Z,52.69
2023-08-07T08:13:55.294Z,52.02
2023-08-07T08:16:22.845Z,51.64
2023-08-07T08:18:49.789Z,51.80
2023-08-07T08:21:16.601Z,51.36
2023-08-07T08:23:43.431Z,51.41
2023-08-07T08:26:10.428Z,51.47
2023-08-07T08:28:37.392Z,51.16
2023-08-07T08:31:04.320Z,51.63
2023-08-07T08:33:31.366Z,51.20
2023-08-07T08:35:58.320Z,50.86
2023-08-07T08:38:25.252Z,50.38
2023-08-07T08:40:53.636Z,50.57
2023-08-07T08:43:22.026Z,50.59
2023-08-07T08:45:49.385Z,50.31
2023-08-07T08:48:21.960Z,49.89
2023-08-07T08:50:50.837Z,50.04
2023-08-07T08:53:18.908Z,49.88
2023-08-07T08:55:46.892Z,49.83
2023-08-07T08:58:16.992Z,49.45
2023-08-07T09:00:44.098Z,49.91
2023-08-07T09:03:12.236Z,49.41
2023-08-07T09:05:40.007Z,49.29
2023-08-07T09:08:07.735Z,49.22
2023-08-07T09:10:36.358Z,49.11
2023-08-07T09:13:05.843Z,49.40
2023-08-07T09:16:04.163Z,49.52
2023-08-07T09:18:31.360Z,48.74
2023-08-07T09:20:58.322Z,48.68
2023-08-07T09:23:25.573Z,49.20
2023-08-07T09:26:04.631Z,49.35
2023-08-07T09:28:32.944Z,48.85
2023-08-07T09:31:00.234Z,49.24
2023-08-07T09:33:28.480Z,48.98
2023-08-07T09:36:00.347Z,48.56
2023-08-07T09:38:33.259Z,48.31
2023-08-07T09:41:01.417Z,48.97
2023-08-07T09:43:29.355Z,48.99
2023-08-07T09:46:06.249Z,48.98
2023-08-07T09:48:33.168Z,48.03
2023-08-07T09:51:02.415Z,47.85
2023-08-07T09:53:32.210Z,48.18
2023-08-07T09:55:59.922Z,48.41
2023-08-07T09:58:26.888Z,48.33
2023-08-07T10:00:53.733Z,48.28
2023-08-07T10:03:22.805Z,48.36
2023-08-07T10:05:50.110Z,48.09
2023-08-07T10:08:17.370Z,48.10
2023-08-07T10:10:44.978Z,48.21
2023-08-07T10:13:15.951Z,48.74
2023-08-07T10:15:44.407Z,48.82
2023-08-07T10:18:11.289Z,48.14
2023-08-07T10:20:39.260Z,46.99
2023-08-07T10:23:09.211Z,46.47
2023-08-07T10:25:38.935Z,45.78
2023-08-07T10:28:09.710Z,46.09
2023-08-07T10:30:37.670Z,46.37
2023-08-07T10:33:05.264Z,46.05
2023-08-07T10:35:33.614Z,46.12
2023-08-07T10:38:10.721Z,45.79
2023-08-07T10:41:09.185Z,45.26
2023-08-07T10:43:40.857Z,44.85
2023-08-07T10:46:10.981Z,44.67
2023-08-07T10:48:45.186Z,44.91
2023-08-07T10:51:16.431Z,44.78
2023-08-07T10:53:45.105Z,44.51
2023-08-07T10:56:19.209Z,44.35
2023-08-07T10:58:51.178Z,44.69
2023-08-07T11:01:21.585Z,45.26
2023-08-07T11:03:57.319Z,45.40
2023-08-07T11:06:30.121Z,46.23
2023-08-07T11:08:57.278Z,46.75
2023-08-07T11:11:24.539Z,46.95
2023-08-07T11:13:51.772Z,46.74
2023-08-07T11:16:18.848Z,47.51
2023-08-07T11:18:45.689Z,47.88
2023-08-07T11:21:13.005Z,47.23
2023-08-07T11:23:41.169Z,46.09
2023-08-07T11:26:09.060Z,45.38
2023-08-07T11:28:35.567Z,45.73
2023-08-07T11:31:02.451Z,45.85
2023-08-07T11:33:30.187Z,45.77
2023-08-07T11:35:56.884Z,46.33
2023-08-07T11:38:33.892Z,47.04
2023-08-07T11:41:01.976Z,48.09
2023-08-07T11:43:30.004Z,47.97
2023-08-07T11:45:58.414Z,48.12
2023-08-07T11:48:26.645Z,47.87
2023-08-07T11:50:54.417Z,47.14
2023-08-07T11:53:22.671Z,47.90
2023-08-07T11:55:54.244Z,48.55
2023-08-07T11:58:20.980Z,48.84
2023-08-07T12:00:48.184Z,49.01
2023-08-07T12:03:28.861Z,49.57
2023-08-07T12:05:57.602Z,49.89
2023-08-07T12:08:25.206Z,50.17
2023-08-07T12:10:55.043Z,50.09
2023-08-07T12:13:25.524Z,50.11
2023-08-07T12:15:56.220Z,50.12
2023-08-07T12:18:23.509Z,50.60
2023-08-07T12:20:52.523Z,50.61
2023-08-07T12:23:21.963Z,50.73
2023-08-07T12:25:48.686Z,51.56
2023-08-07T12:28:17.154Z,51.34
2023-08-07T12:30:46.338Z,50.97
2023-08-07T12:33:13.336Z,51.14
2023-08-07T12:35:40.576Z,51.35
2023-08-07T12:38:07.385Z,51.03
2023-08-07T12:40:36.807Z,51.27
2023-08-07T12:43:04.378Z,50.87
2023-08-07T12:48:01.657Z,50.92
2023-08-07T12:50:29.234Z,51.27
2023-08-07T12:52:56.091Z,51.09
2023-08-07T12:55:22.715Z,51.14
2023-08-07T12:57:51.996Z,51.52
2023-08-07T13:00:18.586Z,51.35
2023-08-07T13:02:49.725Z,52.10
2023-08-07T13:05:17.233Z,52.33
2023-08-07T13:07:44.332Z,52.37
2023-08-07T13:10:12.768Z,52.43
2023-08-07T13:12:41.143Z,52.47
2023-08-07T13:15:09.765Z,52.61
2023-08-07T13:17:37.277Z,52.43
2023-08-07T13:20:05.764Z,52.10
2023-08-07T13:22:32.427Z,52.40
2023-08-07T13:24:58.922Z,52.25
2023-08-07T13:27:25.433Z,52.39
2023-08-07T13:29:51.987Z,51.96
2023-08-07T13:32:18.542Z,52.23
2023-08-07T13:34:45.057Z,52.71
2023-08-07T13:37:11.529Z,53.13
2023-08-07T13:39:38.053Z,52.66
2023-08-07T13:42:04.801Z,52.68
2023-08-07T13:44:31.278Z,52.73
2023-08-07T13:46:57.725Z,52.93
2023-08-07T13:49:24.245Z,53.47
2023-08-07T13:51:51.185Z,53.89
2023-08-07T13:54:17.936Z,53.78
2023-08-07T13:56:44.498Z,54.31
2023-08-07T13:59:11.019Z,54.52
2023-08-07T14:01:37.587Z,54.58
2023-08-07T14:04:04.319Z,55.21
2023-08-07T14:06:30.952Z,55.37
2023-08-07T14:08:57.466Z,55.50
2023-08-07T14:11:23.941Z,55.61
2023-08-07T14:13:50.451Z,55.91
2023-08-07T14:16:16.969Z,55.72
2023-08-07T14:18:43.515Z,55.99
2023-08-07T14:21:10.122Z,56.22
2023-08-07T14:23:36.649Z,55.79
2023-08-07T14:26:03.232Z,56.15
2023-08-07T14:28:29.933Z,56.32
2023-08-07T14:30:59.490Z,56.17
2023-08-07T14:33:26.299Z,56.23
2023-08-07T14:35:52.816Z,56.23
2023-08-07T14:38:19.344Z,56.51
2023-08-07T14:40:45.937Z,56.93
2023-08-07T14:43:12.449Z,57.04
2023-08-07T14:45:39.009Z,57.43
2023-08-07T14:48:05.772Z,57.71
2023-08-07T14:50:32.490Z,57.70
2023-08-07T14:52:58.957Z,58.06
2023-08-07T14:55:25.939Z,58.09
2023-08-07T14:57:52.619Z,58.28
2023-08-07T15:00:19.339Z,58.61
2023-08-07T15:02:45.897Z,58.83
2023-08-07T15:05:12.457Z,58.87
2023-08-07T15:07:38.963Z,59.16
2023-08-07T15:10:05.758Z,59.52
2023-08-07T15:12:32.273Z,60.00
2023-08-07T15:14:58.828Z,60.25
2023-08-07T15:17:25.353Z,60.54
2023-08-07T15:19:52.072Z,60.66
2023-08-07T15:22:18.571Z,60.80
2023-08-07T15:24:45.619Z,61.16
2023-08-07T15:27:13.179Z,61.43
2023-08-07T15:29:40.034Z,61.67
2023-08-07T15:32:06.944Z,61.89
2023-08-07T15:34:33.498Z,62.18
2023-08-07T15:37:00.193Z,62.59
2023-08-07T15:39:27.051Z,62.88
2023-08-07T15:41:53.550Z,63.08
2023-08-07T15:44:20.121Z,63.18
2023-08-07T15:46:46.634Z,63.37
2023-08-07T15:49:13.130Z,63.41
2023-08-07T15:51:40.072Z,63.44
2023-08-07T15:54:06.580Z,63.67
2023-08-07T15:56:33.106Z,63.76
2023-08-07T15:58:59.773Z,63.64
2023-08-07T16:01:26.944Z,63.64
2023-08-07T16:03:53.462Z,63.75
2023-08-07T16:06:20.000Z,63.71
2023-08-07T16:08:46.645Z,64.01
2023-08-07T16:11:13.139Z,63.95
2023-08-07T16:13:39.650Z,64.01
2023-08-07T16:16:06.272Z,63.91
2023-08-07T16:18:32.848Z,63.95
2023-08-07T16:20:59.320Z,64.09
2023-08-07T16:23:25.868Z,64.09
2023-08-07T16:25:52.419Z,64.23
2023-08-07T16:28:18.998Z,63.70
2023-08-07T16:30:45.475Z,63.90
2023-08-07T16:33:12.008Z,63.80
2023-08-07T16:35:38.658Z,63.76
2023-08-07T16:38:05.294Z,63.89
2023-08-07T16:40:31.808Z,63.85
2023-08-07T16:42:58.297Z,64.03
2023-08-07T16:45:24.947Z,64.23
2023-08-07T16:47:51.648Z,64.39
2023-08-07T16:50:18.200Z,64.52
2023-08-07T16:52:44.688Z,64.65
2023-08-07T16:55:11.231Z,64.58
2023-08-07T16:57:37.686Z,64.73
2023-08-07T17:00:04.974Z,64.78
2023-08-07T17:02:31.614Z,64.95
2023-08-07T17:04:58.433Z,65.02
2023-08-07T17:07:27.872Z,64.91
2023-08-07T17:09:54.348Z,64.83
2023-08-07T17:12:20.854Z,64.76
2023-08-07T17:14:47.349Z,64.54
2023-08-07T17:17:13.847Z,64.30
2023-08-07T17:19:40.334Z,64.25
2023-08-07T17:22:06.877Z,64.35
2023-08-07T17:24:33.566Z,64.33
2023-08-07T17:27:00.290Z,64.44
2023-08-07T17:29:26.972Z,64.30
2023-08-07T17:31:53.492Z,64.20
2023-08-07T17:34:20.318Z,64.34
2023-08-07T17:36:46.841Z,64.27
2023-08-07T17:39:13.357Z,64.30
2023-08-07T17:41:39.839Z,64.45
2023-08-07T17:44:06.323Z,64.49
2023-08-07T17:46:32.963Z,64.43
2023-08-07T17:48:59.626Z,64.37
2023-08-07T17:51:26.119Z,64.65
2023-08-07T17:53:52.717Z,64.75
2023-08-07T17:56:19.413Z,64.59
2023-08-07T17:58:45.975Z,64.67
2023-08-07T18:01:12.551Z,64.82
2023-08-07T18:03:39.140Z,64.70
2023-08-07T18:06:05.686Z,64.93
2023-08-07T18:08:38.354Z,65.11
2023-08-07T18:11:04.851Z,65.29
2023-08-07T18:13:31.349Z,65.20
2023-08-07T18:15:57.885Z,65.37
2023-08-07T18:18:24.826Z,65.40
2023-08-07T18:20:51.412Z,65.41
2023-08-07T18:23:17.897Z,65.48
2023-08-07T18:25:44.396Z,65.52
2023-08-07T18:28:10.901Z,65.68
2023-08-07T18:30:37.475Z,65.89
2023-08-07T18:33:04.179Z,66.04
2023-08-07T18:35:30.730Z,65.91
2023-08-07T18:37:57.303Z,66.04
2023-08-07T18:40:23.932Z,66.25
2023-08-07T18:42:50.399Z,66.35
2023-08-07T18:45:16.892Z,66.59
2023-08-07T18:47:43.538Z,66.64
2023-08-07T18:50:10.537Z,66.79
2023-08-07T18:52:37.064Z,67.20
2023-08-07T18:55:03.811Z,66.92
2023-08-07T18:57:30.297Z,66.80
2023-08-07T18:59:57.157Z,66.80
2023-08-07T19:02:23.701Z,66.84
2023-08-07T19:04:50.233Z,66.95
2023-08-07T19:07:16.748Z,66.74
2023-08-07T19:09:43.252Z,66.64
2023-08-07T19:12:10.462Z,66.69
2023-08-07T19:14:37.107Z,66.73
2023-08-07T19:17:07.253Z,66.77
2023-08-07T19:19:35.343Z,66.83
2023-08-07T19:22:01.865Z,66.77
2023-08-07T19:24:28.510Z,66.54
2023-08-07T19:26:55.032Z,66.52
2023-08-07T19:29:21.523Z,66.64
2023-08-07T19:31:48.234Z,66.43
2023-08-07T19:34:14.737Z,66.43
2023-08-07T19:36:41.663Z,66.61
2023-08-07T19:39:08.355Z,66.74
2023-08-07T19:41:34.898Z,66.91
2023-08-07T19:44:01.417Z,66.79
2023-08-07T19:46:27.984Z,66.90
2023-08-07T19:48:54.634Z,66.86
2023-08-07T19:51:21.163Z,66.71
2023-08-07T19:53:59.709Z,66.82
2023-08-07T19:56:28.335Z,66.52
2023-08-07T19:58:54.911Z,66.34
2023-08-07T20:01:21.480Z,66.64
2023-08-07T20:03:48.246Z,66.65
2023-08-07T20:06:14.798Z,66.69
2023-08-07T20:08:41.292Z,66.50
2023-08-07T20:11:07.820Z,66.05
2023-08-07T20:13:34.364Z,65.98
2023-08-07T20:16:00.944Z,66.13
2023-08-07T20:18:27.612Z,66.37
2023-08-07T20:20:54.116Z,66.39
2023-08-07T20:23:20.618Z,66.38
2023-08-07T20:25:47.070Z,66.36
2023-08-07T20:28:13.602Z,66.44
2023-08-07T20:30:40.138Z,66.62
2023-08-07T20:33:06.712Z,66.39
2023-08-07T20:35:33.260Z,66.26
2023-08-07T20:37:59.734Z,66.35
2023-08-07T20:40:26.263Z,66.33
2023-08-07T20:42:52.767Z,66.11
2023-08-07T20:45:19.469Z,66.01
2023-08-07T20:47:46.061Z,65.87
2023-08-07T20:50:12.716Z,66.00
2023-08-07T20:52:39.557Z,66.07
2023-08-07T20:55:06.629Z,66.36
2023-08-07T20:57:33.139Z,66.07
2023-08-07T20:59:59.603Z,65.79
2023-08-07T21:02:26.170Z,65.81
2023-08-07T21:04:52.700Z,65.76
2023-08-07T21:07:19.203Z,65.69
2023-08-07T21:09:45.723Z,65.80
2023-08-07T21:12:12.294Z,65.78
2023-08-07T21:14:38.791Z,65.50
2023-08-07T21:17:05.653Z,65.59
2023-08-07T21:19:32.133Z,65.45
2023-08-07T21:21:59.771Z,65.48
2023-08-07T21:24:26.406Z,65.34
2023-08-07T21:26:52.968Z,65.53
2023-08-07T21:29:19.466Z,65.42
2023-08-07T21:31:45.981Z,65.23
2023-08-07T21:34:12.488Z,65.33
2023-08-07T21:36:38.968Z,65.08
2023-08-07T21:39:05.473Z,65.09
2023-08-07T21:41:31.976Z,65.22
2023-08-07T21:43:58.480Z,65.01
2023-08-07T21:46:25.356Z,65.13
2023-08-07T21:48:52.086Z,65.12
2023-08-07T21:51:18.728Z,65.06
2023-08-07T21:53:45.373Z,65.19
2023-08-07T21:56:11.900Z,65.18
2023-08-07T21:58:38.435Z,65.13
2023-08-07T22:01:04.958Z,65.20
2023-08-07T22:03:31.585Z,65.25
2023-08-07T22:05:58.505Z,65.18
2023-08-07T22:08:25.029Z,65.41
2023-08-07T22:10:51.577Z,65.30
2023-08-07T22:13:18.124Z,65.51
2023-08-07T22:15:44.624Z,65.44
2023-08-07T22:18:11.169Z,65.34
2023-08-07T22:20:37.866Z,65.30
2023-08-07T22:23:04.553Z,65.46
2023-08-07T22:25:31.034Z,65.30
2023-08-07T22:27:57.566Z,65.44
2023-08-07T22:30:24.061Z,65.55
2023-08-07T22:32:50.592Z,65.49
2023-08-07T22:35:18.239Z,65.57
2023-08-07T22:37:44.934Z,65.72
2023-08-07T22:40:11.811Z,65.65
2023-08-07T22:42:38.365Z,65.77
2023-08-07T22:45:05.233Z,65.63
2023-08-07T22:47:31.748Z,65.69
2023-08-07T22:49:58.263Z,65.58
2023-08-07T22:52:24.881Z,65.62
2023-08-07T22:54:51.360Z,65.72
2023-08-07T22:57:17.864Z,65.86
2023-08-07T22:59:44.392Z,65.78
2023-08-07T23:02:10.865Z,65.97
2023-08-07T23:04:37.364Z,66.04
2023-08-07T23:07:04.108Z,66.13
2023-08-07T23:09:30.613Z,66.12
2023-08-07T23:11:57.658Z,66.15
2023-08-07T23:14:24.451Z,66.02
2023-08-07T23:16:50.931Z,66.07
2023-08-07T23:19:17.418Z,65.83
2023-08-07T23:21:43.907Z,66.09
2023-08-07T23:24:10.416Z,66.02
2023-08-07T23:26:36.886Z,66.05
2023-08-07T23:29:03.439Z,66.22
2023-08-07T23:31:29.972Z,66.20
2023-08-07T23:33:56.496Z,66.43
2023-08-07T23:36:22.982Z,66.46
2023-08-07T23:38:49.771Z,66.47
2023-08-07T23:41:16.245Z,66.29
2023-08-07T23:43:42.847Z,66.37
2023-08-07T23:46:09.501Z,66.44
2023-08-07T23:48:36.102Z,66.59
2023-08-07T23:51:02.828Z,66.66
2023-08-07T23:53:29.362Z,66.72
2023-08-07T23:55:56.092Z,66.82
2023-08-07T23:58:22.647Z,66.75
